Latest Coastal Weather Observations for Esperance

IDW60701

Issued at 2:21 am WST Wednesday 4 May 2016 (issued every 10 minutes, with the page automatically refreshed every 10 minutes)

About coastal observations | Map of coastal stations | Coastal observations for WA | Marine services | Other Formats
Station Details ID: 009789 Name: ESPERANCE Lat: -33.83 Lon: 121.89 Height: 25.0 m
Data from the previous 72 hours. | See also: Recent months at Esperance
Date/Time
WST
Temp

°C
Wind Pressure Rain
since 9am
mm
Weather Cloud Vis
km
Sea
Height
m
Swell
Dir
 
Speed
knots
Gust
knots
hPa Trend Height
m
Period
s
Dir
04/02:00am 10.6 WNW 3 4 1016.8 - - - - 10 - - - -
04/01:30am 11.1 WNW 4 5 1017.2 - - - - 10 - - - -
04/01:00am 10.9 NNW 4 5 1017.4 - - - - 10 - - - -
04/12:30am 10.3 NNW 4 5 1017.7 - - - - 8 - - - -
04/12:09am 10.7 NNW 4 5 1017.8 - - - - 8 - - - -
04/12:00am 10.6 NNW 4 5 1017.8 F - - - 8 - - - -
 
Date/Time
WST
Temp

°C
Wind Pressure Rain
since 9am
mm
Weather Cloud Vis
km
Sea
Height
m
Swell
Dir
 
Speed
knots
Gust
knots
hPa Trend Height
m
Period
s
Dir
03/11:59pm 10.6 NNW 4 5 1017.8 - - - - 7 - - - -
03/11:30pm 10.9 N 4 5 1017.9 - - - - 9 - - - -
03/11:00pm 11.5 N 4 5 1017.9 - - - - 9 - - - -
03/10:54pm 11.5 NNW 4 5 1018.0 - - - - 9 - - - -
03/10:30pm 11.5 N 5 6 1018.2 - - - - 7 - - - -
03/10:23pm 11.6 N 6 8 1018.2 - - - - 7 - - - -
03/10:00pm 12.1 N 5 5 1018.4 - - - - 9 - - - -
03/09:30pm 12.2 N 4 5 1018.6 - - - - 9 - - - -
03/09:00pm 12.7 N 5 5 1018.8 F 0.0 - - 9 - - - -
03/08:30pm 12.9 NNW 4 5 1019.0 - - - - 9 - - - -
03/08:00pm 13.7 NNW 4 4 1019.1 - - - - 10 - - - -
03/07:30pm 14.5 W 4 5 1019.3 - - - - 10 - - - -
03/07:00pm 14.4 W 3 5 1019.4 - - - Partly cloudy 10 - - - -
03/06:30pm 15.0 W 4 5 1019.2 - - - - 10 - - - -
03/06:00pm 15.4 WSW 4 5 1019.0 S - - - 10 - - - -
03/05:30pm 15.9 WSW 5 7 1018.7 - - - Partly cloudy 10 - - - -
03/05:00pm 16.8 WSW 6 9 1018.6 - - - Partly cloudy 10 - - - -
03/04:30pm 17.5 SW 7 10 1018.5 - - - Partly cloudy 10 - - - -
03/04:00pm 17.6 WSW 8 12 1018.5 - - - Partly cloudy 10 - - - -
03/03:30pm 17.8 SW 8 13 1018.5 - - - Partly cloudy 10 - - - -
03/03:00pm 18.1 SW 10 15 1018.4 R - - Cloudy 10 - - - -
03/02:30pm 17.5 SSW 10 16 1018.4 - - - Mostly clear 10 - - - -
03/02:00pm 18.5 SW 9 20 1018.3 - - - Mostly clear 10 - - - -
03/01:30pm 18.5 SSW 11 15 1018.2 - - - Mostly clear 10 - - - -
03/01:00pm 19.6 WSW 12 21 1018.2 - 0.0 - Partly cloudy 10 - - - -
03/12:30pm 19.0 WSW 12 17 1018.4 - 0.0 - Mostly clear 10 - - - -
03/12:00pm 20.1 WSW 11 17 1018.7 R 0.0 - Mostly cloudy 10 - - - -
03/11:30am 19.6 W 10 16 1019.0 - 0.0 - Mostly clear 10 - - - -
03/11:00am 18.5 WSW 10 16 1019.4 - 0.0 - Mostly clear 10 - - - -
03/10:30am 19.5 SW 11 17 1019.2 - 0.0 - Mostly clear 10 - - - -
03/10:00am 18.7 SW 10 16 1019.3 - 0.0 - Mostly clear 10 - - - -
03/09:30am 18.0 SW 13 20 1019.2 - 0.0 - Mostly clear 10 - - - -
03/09:00am 18.5 SW 11 19 1019.0 R 0.2 - Mostly clear 10 - - - -
03/08:30am 18.0 SW 12 17 1018.9 - 0.2 - Mostly clear 10 - - - -
03/08:00am 17.7 SW 10 15 1018.6 - 0.2 - Mostly clear 10 - - - -
03/07:30am 16.8 SW 10 16 1018.3 - 0.2 - Mostly clear 10 - - - -
03/07:00am 16.4 SW 10 15 1018.1 - 0.2 - Mostly clear 10 - - - -
03/06:30am 16.1 SW 8 17 1017.8 - 0.2 - - 10 - - - -
03/06:00am 16.4 SW 10 18 1017.5 R 0.2 - Mostly clear 10 - - - -
03/05:30am 16.5 SW 9 17 1017.3 - 0.2 - Partly cloudy 10 - - - -
03/05:00am 16.7 WSW 10 14 1017.1 - 0.2 - Partly cloudy 10 - - - -
03/04:30am 16.5 WSW 9 14 1017.0 - 0.2 - Partly cloudy 10 - - - -
03/04:00am 16.2 SW 10 16 1016.7 - 0.2 - Partly cloudy 10 - - - -
03/03:30am 14.8 WNW 9 12 1016.7 - 0.2 - Partly cloudy 10 - - - -
03/03:00am 15.4 WNW 7 12 1016.7 R 0.2 - Mostly cloudy 10 - - - -
03/02:30am 16.9 WSW 11 20 1016.7 - 0.2 - Partly cloudy 10 - - - -
03/02:00am 17.3 WSW 11 19 1016.8 - 0.2 - Partly cloudy 10 - - - -
03/01:30am 17.2 WSW 12 19 1016.8 - 0.2 - Partly cloudy 10 - - - -
03/01:00am 17.1 WSW 12 19 1016.8 - 0.2 - Partly cloudy 10 - - - -
03/12:30am 17.5 WSW 12 19 1017.0 - 0.2 - Partly cloudy 10 - - - -
03/12:00am 17.3 WSW 13 19 1016.8 R 0.2 - Cloudy 10 - - - -
 
Date/Time
WST
Temp

°C
Wind Pressure Rain
since 9am
mm
Weather Cloud Vis
km
Sea
Height
m
Swell
Dir
 
Speed
knots
Gust
knots
hPa Trend Height
m
Period
s
Dir
02/11:30pm 17.5 WSW 11 18 1016.7 - 0.2 - Partly cloudy 10 - - - -
02/11:00pm 17.4 WSW 11 16 1016.7 - 0.2 - Partly cloudy 10 - - - -
02/10:30pm 17.5 WSW 10 15 1016.9 - 0.2 - Partly cloudy 10 - - - -
02/10:00pm 17.2 SW 11 19 1016.9 - 0.2 - Partly cloudy 10 - - - -
02/09:30pm 17.2 WSW 8 17 1016.7 - 0.2 - Partly cloudy 10 - - - -
02/09:00pm 16.3 W 7 11 1016.7 F 0.2 - Cloudy 10 - - - -
02/08:30pm 16.6 WNW 8 12 1016.6 - 0.2 - Partly cloudy 10 - - - -
02/08:00pm 17.5 WNW 9 15 1016.3 - 0.2 - Partly cloudy 10 - - - -
02/07:30pm 17.8 WNW 9 13 1016.5 - 0.2 - Partly cloudy 10 - - - -
02/07:00pm 18.0 WNW 8 14 1016.4 - 0.2 - Partly cloudy 10 - - - -
02/06:30pm 18.2 WNW 9 14 1016.3 - 0.2 - Partly cloudy 10 - - - -
02/06:00pm 18.6 W 11 19 1016.2 R 0.2 - Cloudy 10 - - - -
02/05:30pm 18.5 W 12 21 1015.9 - 0.2 - Cloudy 10 - - - -
02/05:00pm 18.6 W 12 18 1015.6 - 0.2 - Cloudy 10 - - - -
02/04:30pm 18.7 W 13 21 1015.4 - 0.2 - Cloudy 10 - - - -
02/04:00pm 18.5 W 13 19 1015.5 - 0.2 - Cloudy 10 - - - -
02/03:45pm 18.6 W 15 25 1015.3 - 0.2 - Cloudy 10 - - - -
02/03:30pm 18.8 WNW 14 20 1015.3 - 0.2 - Partly cloudy 10 - - - -
02/03:10pm 18.9 WNW 15 25 1015.2 - 0.2 - Cloudy 10 - - - -
02/03:00pm 18.8 WNW 15 24 1015.0 F 0.2 - Cloudy 10 - - - -
02/02:30pm 18.6 W 16 26 1015.3 - 0.2 - Mostly cloudy 10 - - - -
02/02:25pm 18.6 W 16 26 1015.2 - 0.2 - Mostly cloudy 10 - - - -
02/02:00pm 18.9 W 13 22 1015.4 - 0.2 - Mostly cloudy 10 - - - -
02/01:30pm 18.8 W 14 23 1015.5 - 0.2 - Mostly clear 10 - - - -
02/01:14pm 19.0 W 15 25 1015.6 - 0.2 - Mostly clear 10 - - - -
02/01:00pm 19.4 W 12 20 1015.5 - 0.2 - Mostly clear 10 - - - -
02/12:30pm 19.5 W 13 22 1015.9 - 0.2 - Mostly clear 10 - - - -
02/12:20pm 19.2 W 16 27 1015.8 - 0.2 - Mostly clear 10 - - - -
02/12:00pm 19.5 W 15 23 1016.2 F 0.2 - Mostly clear 10 - - - -
02/11:30am 19.2 W 15 23 1016.6 - 0.2 - Mostly clear 10 - - - -
02/11:00am 19.1 W 13 20 1016.8 - 0.2 - Mostly clear 10 - - - -
02/10:30am 18.5 W 13 21 1017.2 - 0.2 - Mostly clear 10 - - - -
02/10:00am 18.0 WNW 11 17 1017.4 - 0.2 - Mostly clear 10 - - - -
02/09:30am 17.3 WNW 12 19 1017.4 - 0.0 - Mostly clear 10 - - - -
02/09:00am 16.1 WNW 11 17 1017.5 F 0.0 - Mostly clear 10 - - - -
02/08:30am 14.9 WNW 11 14 1017.8 - 0.0 - Mostly clear 10 - - - -
02/08:00am 13.4 WNW 10 14 1017.8 - 0.0 - Mostly clear 10 - - - -
02/07:30am 12.2 NW 7 10 1017.8 - 0.0 - Mostly clear 10 - - - -
02/07:00am 10.8 NW 7 10 1017.4 - 0.0 - Mostly clear 10 - - - -
02/06:30am 10.0 WNW 8 10 1017.6 - 0.0 - - 10 - - - -
02/06:00am 10.1 NW 8 10 1017.6 F 0.0 - - 10 - - - -
02/05:30am 10.5 NW 9 12 1017.3 - 0.0 - - 10 - - - -
02/05:00am 10.4 NW 9 12 1017.3 - 0.0 - - 10 - - - -
02/04:30am 10.6 NW 10 12 1017.2 - 0.0 - - 10 - - - -
02/04:00am 10.4 NW 7 10 1017.1 - 0.0 - - 10 - - - -
02/03:30am 10.5 WNW 7 9 1017.1 - 0.0 - - 10 - - - -
02/03:00am 10.8 WNW 7 9 1017.2 F 0.0 - - 10 - - - -
02/02:30am 10.9 WNW 7 9 1017.5 - 0.0 - - 10 - - - -
02/02:00am 11.5 WNW 6 9 1018.0 - 0.0 - - 10 - - - -
02/01:30am 11.9 NW 7 11 1018.0 - 0.0 - Partly cloudy 10 - - - -
02/01:00am 12.2 NW 7 9 1018.3 - 0.0 - Partly cloudy 10 - - - -
02/12:30am 12.7 NW 7 10 1018.1 - 0.0 - Partly cloudy 10 - - - -
02/12:00am 13.5 NW 10 13 1018.0 F 0.0 - Mostly cloudy 10 - - - -
 
Date/Time
WST
Temp

°C
Wind Pressure Rain
since 9am
mm
Weather Cloud Vis
km
Sea
Height
m
Swell
Dir
 
Speed
knots
Gust
knots
hPa Trend Height
m
Period
s
Dir
01/11:30pm 13.9 NW 10 14 1018.2 - 0.0 - Cloudy 10 - - - -
01/11:00pm 13.9 WNW 9 12 1018.6 - 0.0 - Cloudy 10 - - - -
01/10:30pm 13.7 NW 10 14 1018.9 - 0.0 - Cloudy 10 - - - -
01/10:15pm 13.8 NW 10 12 1018.9 - 0.0 - Cloudy 10 - - - -
01/10:00pm 14.0 NW 10 13 1019.0 - 0.0 - Cloudy 6 - - - -
01/09:39pm 14.2 WNW 8 11 1019.2 - 0.0 - Cloudy 7 - - - -
01/09:30pm 14.2 WNW 9 12 1019.2 - 0.0 - Cloudy 10 - - - -
01/09:00pm 14.0 WNW 9 12 1019.3 F 0.0 - Mostly cloudy 10 - - - -
01/08:30pm 13.7 NW 9 12 1019.4 - 0.0 - Partly cloudy 10 - - - -
01/08:00pm 13.8 NW 8 11 1019.6 - 0.0 - Partly cloudy 10 - - - -
01/07:30pm 13.6 WNW 7 9 1019.7 - 0.0 - Partly cloudy 10 - - - -
01/07:00pm 13.0 NW 6 7 1019.7 - 0.0 - - 10 - - - -
01/06:30pm 13.7 NW 6 7 1019.7 - 0.0 - - 10 - - - -
01/06:00pm 14.2 WNW 6 8 1019.6 R 0.0 - - 8 - - - -
01/05:30pm 14.8 W 5 8 1019.4 - 0.0 - - 10 - - - -
01/05:00pm 15.7 W 6 9 1019.2 - 0.0 - - 10 - - - -
01/04:30pm 16.6 WSW 7 11 1019.2 - 0.0 - - 10 - - - -
01/04:00pm 17.0 WSW 8 13 1019.1 - 0.0 - - 10 - - - -
01/03:30pm 17.2 WSW 9 13 1018.9 - 0.0 - - 10 - - - -
01/03:00pm 17.3 WSW 9 16 1018.9 F 0.0 - - 10 - - - -
01/02:30pm 17.7 WSW 9 15 1019.0 - 0.0 - - 10 - - - -
01/02:00pm 17.9 W 8 13 1018.9 - 0.0 - - 10 - - - -
01/01:30pm 16.7 WSW 10 17 1019.1 - 0.0 - Partly cloudy 10 - - - -
01/01:00pm 17.8 W 9 13 1019.3 - 0.0 - Partly cloudy 10 - - - -
01/12:30pm 18.3 WNW 10 16 1019.9 - 0.0 - Partly cloudy 10 - - - -
01/12:00pm 18.0 WNW 10 16 1020.4 F 0.0 - Mostly clear 10 - - - -
01/11:30am 17.6 WNW 11 16 1020.8 - 0.0 - - 10 - - - -
01/11:00am 17.0 WNW 11 15 1021.0 - 0.0 - - 10 - - - -
01/10:30am 16.8 WNW 11 15 1021.1 - 0.0 - - 10 - - - -
01/10:00am 16.0 WNW 11 15 1021.3 - 0.0 - - 10 - - - -
01/09:30am 15.0 WNW 12 17 1021.5 - 0.0 - - 10 - - - -
01/09:00am 14.4 WNW 10 16 1021.5 R 2.8 - - 10 - - - -
01/08:30am 13.1 NW 10 15 1021.4 - 2.8 - Partly cloudy 10 - - - -
01/08:00am 11.5 WNW 8 13 1021.3 - 2.8 - Cloudy 10 - - - -
01/07:30am 10.9 NW 12 15 1021.0 - 2.8 - Partly cloudy 10 - - - -
01/07:00am 10.7 NW 9 11 1020.7 - 2.8 - Partly cloudy 10 - - - -
01/06:30am 10.7 NW 9 12 1020.6 - 2.8 - Cloudy 10 - - - -
01/06:00am 10.6 WNW 7 10 1020.7 F 2.8 - Cloudy 10 - - - -
01/05:30am 10.6 WNW 6 8 1020.5 - 2.8 - Partly cloudy 10 - - - -
01/05:00am 10.8 NW 7 9 1020.3 - 2.8 - Partly cloudy 10 - - - -
01/04:30am 10.9 NW 6 7 1020.3 - 2.8 - Partly cloudy 10 - - - -
01/04:00am 11.2 NW 7 10 1020.3 - 2.8 - Partly cloudy 10 - - - -
01/03:30am 11.2 NW 6 8 1020.0 - 2.6 - Partly cloudy 10 - - - -
01/03:26am 11.1 NW 6 8 1020.0 - 2.6 - Partly cloudy 10 - - - -
01/03:00am 11.2 WNW 11 18 1020.4 R 2.4 Rain Cloudy 3 - - - -
01/02:54am 11.5 WNW 11 15 1020.2 - 2.2 - Partly cloudy 7 - - - -
01/02:30am 11.5 WNW 7 10 1020.1 - 2.2 - Partly cloudy 10 - - - -

Other Formats:

Comma delimited format used in spreadsheet applications
http://www.bom.gov.au/fwo/IDW60701/IDW60701.94638.axf

JavaScript Object Notation format (JSON) in row-major order
http://www.bom.gov.au/fwo/IDW60701/IDW60701.94638.json